Time;durP1;ratioP1;P1;durP2;ratioP2;P2;SDS_P1;SDS_P2;PMS_P1;PMS_P2;Temp;Humidity;BMP_temperature;BMP_pressure;BME280_temperature;BME280_humidity;BME280_pressure;Samples;Min_cycle;Max_cycle;Signal;HPM_P1;HPM_P2
2021/11/05 00:00:39;;;;;;;13.43;7.50;;;;;;;;;;5054022;28;20025;-57
2021/11/05 00:03:06;;;;;;;23.77;13.00;;;;;;;;;;5054084;28;20079;-64
2021/11/05 00:05:32;;;;;;;13.40;9.02;;;;;;;;;;5054543;28;20428;-62
2021/11/05 00:08:07;;;;;;;9.40;5.28;;;;;;;;;;5054377;28;20028;-62
2021/11/05 00:10:34;;;;;;;22.17;14.75;;;;;;;;;;5054331;28;20028;-64
2021/11/05 00:13:00;;;;;;;8.55;4.22;;;;;;;;;;5054021;28;20411;-60
2021/11/05 00:15:28;;;;;;;9.27;3.65;;;;;;;;;;5054139;28;20032;-64
2021/11/05 00:17:54;;;;;;;9.52;5.32;;;;;;;;;;5053975;28;20060;-64
2021/11/05 00:20:23;;;;;;;10.13;5.63;;;;;;;;;;5054147;28;20017;-64
2021/11/05 00:22:49;;;;;;;12.48;5.85;;;;;;;;;;5053462;28;20063;-59
2021/11/05 00:25:15;;;;;;;18.80;9.48;;;;;;;;;;5053774;28;20021;-60
2021/11/05 00:27:41;;;;;;;7.00;2.22;;;;;;;;;;5053930;28;20111;-61
2021/11/05 00:30:08;;;;;;;5.55;2.75;;;;;;;;;;5053908;28;20024;-63
2021/11/05 00:32:35;;;;;;;5.55;1.58;;;;;;;;;;5053835;28;20036;-61
2021/11/05 00:35:01;;;;;;;8.52;5.32;;;;;;;;;;5053902;28;20033;-61
2021/11/05 00:37:27;;;;;;;3.00;1.38;;;;;;;;;;5053719;28;20023;-63
2021/11/05 00:39:56;;;;;;;4.18;1.63;;;;;;;;;;5052524;28;20024;-61
2021/11/05 00:42:23;;;;;;;12.30;7.15;;;;;;;;;;5053123;28;20017;-63
2021/11/05 00:44:51;;;;;;;3.75;2.20;;;;;;;;;;5053581;28;20401;-62
2021/11/05 00:47:18;;;;;;;5.65;1.77;;;;;;;;;;5053580;28;20043;-58
2021/11/05 00:49:49;;;;;;;8.95;3.63;;;;;;;;;;5053587;28;20037;-58
2021/11/05 00:52:17;;;;;;;10.68;5.68;;;;;;;;;;5053870;28;20079;-59
2021/11/05 00:54:43;;;;;;;5.35;1.95;;;;;;;;;;5053734;28;20017;-60
2021/11/05 00:57:10;;;;;;;13.57;7.05;;;;;;;;;;5053411;28;20044;-62
2021/11/05 00:59:38;;;;;;;11.35;6.03;;;;;;;;;;5053345;28;20021;-60
2021/11/05 01:02:04;;;;;;;19.52;10.88;;;;;;;;;;5052716;28;20080;-57
2021/11/05 01:04:30;;;;;;;11.23;5.93;;;;;;;;;;5053620;28;20028;-64
2021/11/05 01:06:57;;;;;;;23.63;13.77;;;;;;;;;;5053276;28;20108;-64
2021/11/05 01:09:23;;;;;;;15.48;9.77;;;;;;;;;;5053492;28;20025;-63
2021/11/05 01:11:49;;;;;;;10.77;5.78;;;;;;;;;;5053265;28;20056;-63
2021/11/05 01:14:17;;;;;;;7.15;4.32;;;;;;;;;;5053303;28;20025;-57
2021/11/05 01:16:44;;;;;;;8.10;5.38;;;;;;;;;;5053296;28;20017;-60
2021/11/05 01:19:10;;;;;;;13.98;6.28;;;;;;;;;;5053236;28;20392;-58
2021/11/05 01:21:36;;;;;;;13.43;7.82;;;;;;;;;;5052873;28;20099;-57
2021/11/05 01:24:02;;;;;;;7.25;3.42;;;;;;;;;;5053167;28;20021;-58
2021/11/05 01:26:28;;;;;;;8.93;4.88;;;;;;;;;;5053336;28;20137;-60
2021/11/05 01:28:55;;;;;;;8.65;4.35;;;;;;;;;;5053159;28;20037;-60
2021/11/05 01:31:22;;;;;;;8.95;4.65;;;;;;;;;;5052964;28;20031;-60
2021/11/05 01:33:48;;;;;;;5.88;3.30;;;;;;;;;;5053186;28;20025;-56
2021/11/05 01:36:14;;;;;;;10.13;5.07;;;;;;;;;;5056699;28;20027;-55
2021/11/05 01:38:40;;;;;;;10.27;4.70;;;;;;;;;;5057053;28;20031;-59
2021/11/05 01:41:07;;;;;;;10.73;5.93;;;;;;;;;;5056837;28;20496;-59
2021/11/05 01:43:33;;;;;;;11.32;6.43;;;;;;;;;;5056653;28;20055;-64
2021/11/05 01:45:59;;;;;;;15.15;8.85;;;;;;;;;;5056738;28;20028;-62
2021/11/05 01:48:26;;;;;;;8.02;5.22;;;;;;;;;;5057089;28;20040;-62
2021/11/05 01:50:55;;;;;;;12.60;5.72;;;;;;;;;;5056990;28;20052;-62
2021/11/05 01:53:21;;;;;;;8.95;5.13;;;;;;;;;;5057307;28;20028;-61
2021/11/05 01:55:50;;;;;;;17.45;8.57;;;;;;;;;;5057815;28;20032;-63
2021/11/05 01:58:20;;;;;;;9.65;5.72;;;;;;;;;;5057106;28;20032;-62
2021/11/05 02:00:49;;;;;;;8.55;5.57;;;;;;;;;;5056394;28;20056;-62
2021/11/05 02:03:15;;;;;;;10.32;5.20;;;;;;;;;;5056834;28;20056;-61
2021/11/05 02:05:43;;;;;;;6.75;4.15;;;;;;;;;;5056865;28;20106;-55
2021/11/05 02:08:11;;;;;;;11.02;6.60;;;;;;;;;;5056453;28;20037;-55
2021/11/05 02:10:38;;;;;;;9.18;3.30;;;;;;;;;;5056754;28;20042;-60
2021/11/05 02:13:04;;;;;;;7.97;3.72;;;;;;;;;;5056236;28;20028;-55
2021/11/05 02:15:30;;;;;;;8.02;4.10;;;;;;;;;;5056459;28;20028;-60
2021/11/05 02:17:57;;;;;;;6.07;2.53;;;;;;;;;;5056275;28;20025;-59
2021/11/05 02:20:25;;;;;;;4.72;2.80;;;;;;;;;;5056318;28;20025;-57
2021/11/05 02:22:52;;;;;;;3.95;2.08;;;;;;;;;;5056171;28;20441;-57
2021/11/05 02:25:21;;;;;;;5.47;3.05;;;;;;;;;;5056364;28;20070;-56
2021/11/05 02:27:49;;;;;;;5.75;3.28;;;;;;;;;;5056221;28;20094;-61
2021/11/05 02:30:16;;;;;;;6.25;2.28;;;;;;;;;;5056036;28;20393;-59
2021/11/05 02:32:42;;;;;;;6.03;2.40;;;;;;;;;;5056058;28;20582;-55
2021/11/05 02:35:09;;;;;;;5.55;1.80;;;;;;;;;;5056132;28;20021;-56
2021/11/05 02:37:36;;;;;;;9.93;4.53;;;;;;;;;;5055991;28;20103;-56
2021/11/05 02:40:03;;;;;;;6.45;2.63;;;;;;;;;;5056058;28;20036;-60
2021/11/05 02:42:29;;;;;;;7.95;2.35;;;;;;;;;;5055353;28;20021;-58
2021/11/05 02:44:55;;;;;;;7.97;4.38;;;;;;;;;;5055848;28;20110;-59
2021/11/05 02:47:24;;;;;;;7.43;2.88;;;;;;;;;;5055199;28;20070;-54
2021/11/05 02:49:50;;;;;;;4.75;2.10;;;;;;;;;;5055914;28;20103;-56
2021/11/05 02:52:17;;;;;;;6.03;1.85;;;;;;;;;;5055702;28;20078;-55
2021/11/05 02:54:45;;;;;;;5.28;2.10;;;;;;;;;;5055756;28;20031;-59
2021/11/05 02:57:12;;;;;;;3.88;1.80;;;;;;;;;;5055734;28;20100;-58
2021/11/05 02:59:39;;;;;;;5.25;2.55;;;;;;;;;;5055417;28;20021;-61
2021/11/05 03:02:05;;;;;;;4.22;1.90;;;;;;;;;;5054843;28;20059;-53
2021/11/05 03:04:31;;;;;;;6.57;1.55;;;;;;;;;;5055851;28;20079;-55
2021/11/05 03:06:59;;;;;;;6.07;2.83;;;;;;;;;;5055455;28;20021;-58
2021/11/05 03:09:25;;;;;;;7.60;4.63;;;;;;;;;;5055465;28;20037;-60
2021/11/05 03:11:51;;;;;;;9.07;3.88;;;;;;;;;;5055221;28;20457;-57
2021/11/05 03:14:18;;;;;;;9.35;3.28;;;;;;;;;;5055157;28;20028;-58
2021/11/05 03:16:44;;;;;;;8.48;3.85;;;;;;;;;;5055258;28;20027;-57
2021/11/05 03:19:10;;;;;;;6.40;2.60;;;;;;;;;;5055073;28;20032;-61
2021/11/05 03:21:37;;;;;;;6.25;3.10;;;;;;;;;;5054937;28;20031;-59
2021/11/05 03:24:03;;;;;;;6.03;3.78;;;;;;;;;;5055133;28;20096;-59
2021/11/05 03:26:32;;;;;;;9.80;4.80;;;;;;;;;;5055171;28;20024;-60
2021/11/05 03:28:58;;;;;;;9.85;5.35;;;;;;;;;;5054986;28;20041;-61
2021/11/05 03:31:24;;;;;;;8.85;4.88;;;;;;;;;;5055091;28;20409;-60
2021/11/05 03:33:51;;;;;;;10.50;5.82;;;;;;;;;;5055098;28;20083;-63
2021/11/05 03:36:17;;;;;;;7.78;4.85;;;;;;;;;;5055110;28;20025;-61
2021/11/05 03:38:43;;;;;;;8.75;5.40;;;;;;;;;;5054874;28;20511;-60
2021/11/05 03:41:12;;;;;;;9.88;6.25;;;;;;;;;;5054745;28;20071;-61
2021/11/05 03:43:39;;;;;;;12.15;7.07;;;;;;;;;;5054292;28;20025;-61
2021/11/05 03:46:06;;;;;;;10.05;6.35;;;;;;;;;;5054831;28;20492;-59
2021/11/05 03:48:35;;;;;;;9.63;6.28;;;;;;;;;;5054791;28;20052;-58
2021/11/05 03:51:02;;;;;;;8.23;6.00;;;;;;;;;;5053609;28;20044;-62
2021/11/05 03:53:28;;;;;;;12.82;5.55;;;;;;;;;;5054609;28;20078;-60
2021/11/05 03:55:54;;;;;;;9.88;6.72;;;;;;;;;;5054626;28;20499;-61
2021/11/05 03:58:20;;;;;;;11.45;5.75;;;;;;;;;;5054288;28;20057;-60
2021/11/05 04:00:46;;;;;;;12.55;4.22;;;;;;;;;;5054058;28;20443;-62
2021/11/05 04:03:13;;;;;;;7.68;3.35;;;;;;;;;;5054054;28;20031;-62
2021/11/05 04:05:39;;;;;;;5.72;3.40;;;;;;;;;;5054413;28;20024;-61
2021/11/05 04:08:05;;;;;;;6.35;3.25;;;;;;;;;;5054450;28;20028;-60
2021/11/05 04:10:32;;;;;;;8.52;3.88;;;;;;;;;;5054389;28;20025;-58
2021/11/05 04:13:01;;;;;;;7.53;3.45;;;;;;;;;;5054402;28;20369;-58
2021/11/05 04:15:29;;;;;;;7.68;3.58;;;;;;;;;;5054061;28;20109;-54
2021/11/05 04:17:55;;;;;;;9.07;3.40;;;;;;;;;;5054139;28;20394;-59
2021/11/05 04:20:21;;;;;;;5.22;2.97;;;;;;;;;;5054187;28;20025;-58
2021/11/05 04:22:48;;;;;;;6.15;3.78;;;;;;;;;;5054130;28;20024;-59
2021/11/05 04:25:19;;;;;;;5.72;3.67;;;;;;;;;;5054089;28;20017;-60
2021/11/05 04:27:45;;;;;;;6.75;4.00;;;;;;;;;;5053873;28;20123;-55
2021/11/05 04:30:13;;;;;;;9.88;5.55;;;;;;;;;;5053801;28;20017;-62
2021/11/05 04:32:40;;;;;;;9.10;4.90;;;;;;;;;;5053739;28;20029;-62
2021/11/05 04:35:06;;;;;;;29.42;16.63;;;;;;;;;;5053757;28;20017;-56
2021/11/05 04:37:32;;;;;;;24.95;16.80;;;;;;;;;;5053709;28;20052;-62
2021/11/05 04:39:58;;;;;;;40.22;24.13;;;;;;;;;;5053784;28;20052;-62
2021/11/05 04:42:24;;;;;;;18.92;10.95;;;;;;;;;;5053606;28;20029;-56
2021/11/05 04:44:51;;;;;;;26.33;16.27;;;;;;;;;;5053500;28;20382;-54
2021/11/05 04:47:17;;;;;;;21.77;13.50;;;;;;;;;;5053501;28;20028;-56
2021/11/05 04:49:43;;;;;;;37.55;22.92;;;;;;;;;;5052491;28;20040;-55
2021/11/05 04:52:09;;;;;;;20.85;12.13;;;;;;;;;;5052338;28;20029;-57
2021/11/05 04:54:35;;;;;;;28.95;18.88;;;;;;;;;;5053496;28;20025;-59
2021/11/05 04:57:01;;;;;;;12.48;8.57;;;;;;;;;;5053344;28;20041;-56
2021/11/05 04:59:28;;;;;;;18.67;11.75;;;;;;;;;;5053432;28;20025;-64
2021/11/05 05:01:54;;;;;;;17.55;10.45;;;;;;;;;;5053010;28;20048;-56
2021/11/05 05:04:20;;;;;;;15.73;9.40;;;;;;;;;;5053230;28;20029;-55
2021/11/05 05:06:48;;;;;;;17.10;12.10;;;;;;;;;;5053219;28;20021;-57
2021/11/05 05:09:15;;;;;;;19.85;12.63;;;;;;;;;;5052534;28;20072;-54
2021/11/05 05:11:45;;;;;;;31.42;18.10;;;;;;;;;;5053194;28;20384;-61
2021/11/05 05:14:11;;;;;;;51.87;31.30;;;;;;;;;;5053231;28;20079;-57
2021/11/05 05:16:38;;;;;;;34.65;19.73;;;;;;;;;;5053230;28;20063;-59
2021/11/05 05:19:04;;;;;;;28.30;19.30;;;;;;;;;;5053245;28;20028;-60
2021/11/05 05:21:30;;;;;;;32.03;19.02;;;;;;;;;;5053030;28;20025;-60
2021/11/05 05:23:56;;;;;;;37.30;21.00;;;;;;;;;;5053192;28;20068;-59
2021/11/05 05:26:22;;;;;;;23.50;15.85;;;;;;;;;;5053118;28;20372;-61
2021/11/05 05:28:49;;;;;;;18.20;12.93;;;;;;;;;;5052909;28;20041;-60
2021/11/05 05:31:15;;;;;;;18.75;13.80;;;;;;;;;;5052970;28;20502;-60
2021/11/05 05:33:42;;;;;;;25.35;17.73;;;;;;;;;;5052985;28;20033;-58
2021/11/05 05:36:08;;;;;;;32.63;22.00;;;;;;;;;;5052952;28;20041;-58
2021/11/05 05:38:35;;;;;;;20.63;15.10;;;;;;;;;;5053016;28;20404;-58
2021/11/05 05:41:02;;;;;;;19.80;15.10;;;;;;;;;;5052976;28;20461;-58
2021/11/05 05:43:28;;;;;;;30.55;19.25;;;;;;;;;;5053351;28;20426;-69
2021/11/05 05:45:56;;;;;;;21.67;15.68;;;;;;;;;;5052901;28;20025;-66
2021/11/05 05:48:23;;;;;;;30.40;19.98;;;;;;;;;;5052862;28;20382;-66
2021/11/05 05:50:51;;;;;;;25.65;17.90;;;;;;;;;;5052981;28;20091;-63
2021/11/05 05:53:18;;;;;;;33.17;20.58;;;;;;;;;;5053079;28;20051;-66
2021/11/05 05:55:44;;;;;;;20.45;14.07;;;;;;;;;;5053393;28;20025;-66
2021/11/05 05:58:11;;;;;;;19.95;14.32;;;;;;;;;;5052836;28;20077;-64
2021/11/05 06:00:37;;;;;;;24.15;16.02;;;;;;;;;;5052525;28;20037;-66
2021/11/05 06:03:03;;;;;;;29.95;17.73;;;;;;;;;;5052848;28;20086;-66
2021/11/05 06:05:32;;;;;;;24.85;16.85;;;;;;;;;;5052768;28;20120;-66
2021/11/05 06:07:58;;;;;;;26.63;16.58;;;;;;;;;;5052585;28;20155;-66
2021/11/05 06:10:29;;;;;;;26.98;17.13;;;;;;;;;;5053204;28;20056;-65
2021/11/05 06:12:56;;;;;;;30.50;20.10;;;;;;;;;;5051279;28;20091;-63
2021/11/05 06:15:22;;;;;;;22.20;14.75;;;;;;;;;;5052595;28;20036;-65
2021/11/05 06:17:48;;;;;;;22.65;16.35;;;;;;;;;;5052903;28;20044;-65
2021/11/05 06:20:14;;;;;;;32.45;17.52;;;;;;;;;;5053127;28;20163;-64
2021/11/05 06:22:40;;;;;;;24.83;12.77;;;;;;;;;;5055095;28;20473;-64
2021/11/05 06:25:07;;;;;;;16.92;9.73;;;;;;;;;;5056469;28;20108;-61
2021/11/05 06:27:33;;;;;;;15.65;7.45;;;;;;;;;;5056194;28;20483;-63
2021/11/05 06:29:59;;;;;;;15.45;7.90;;;;;;;;;;5056109;28;20469;-61
2021/11/05 06:32:25;;;;;;;19.25;9.20;;;;;;;;;;5056499;28;20105;-64
2021/11/05 06:34:51;;;;;;;16.95;6.78;;;;;;;;;;5056136;28;20036;-63
2021/11/05 06:37:18;;;;;;;25.30;10.65;;;;;;;;;;5056346;28;20025;-63
2021/11/05 06:39:44;;;;;;;26.38;12.00;;;;;;;;;;5055060;28;20040;-63
2021/11/05 06:42:14;;;;;;;28.42;12.57;;;;;;;;;;5056237;28;20021;-63
2021/11/05 06:44:40;;;;;;;24.58;10.65;;;;;;;;;;5056184;28;20017;-63
2021/11/05 06:47:07;;;;;;;13.73;7.65;;;;;;;;;;5056023;28;20021;-63
2021/11/05 06:49:33;;;;;;;14.27;8.85;;;;;;;;;;5055913;28;20163;-63
2021/11/05 06:52:01;;;;;;;11.63;8.02;;;;;;;;;;5056042;28;20028;-63
2021/11/05 06:54:27;;;;;;;19.35;10.80;;;;;;;;;;5054706;28;20055;-62
2021/11/05 06:56:54;;;;;;;13.02;8.32;;;;;;;;;;5056189;28;20029;-63
2021/11/05 06:59:20;;;;;;;12.60;8.55;;;;;;;;;;5055834;28;20024;-63
2021/11/05 07:01:46;;;;;;;12.43;8.23;;;;;;;;;;5055475;28;20052;-63
2021/11/05 07:04:12;;;;;;;17.23;9.50;;;;;;;;;;5055747;28;20381;-63
2021/11/05 07:06:45;;;;;;;10.25;8.23;;;;;;;;;;5055409;28;20040;-63
2021/11/05 07:09:12;;;;;;;11.52;7.03;;;;;;;;;;5055617;28;20033;-63
2021/11/05 07:11:38;;;;;;;14.95;9.23;;;;;;;;;;5055499;28;20435;-63
2021/11/05 07:14:04;;;;;;;14.20;9.23;;;;;;;;;;5055458;28;20119;-62
2021/11/05 07:16:32;;;;;;;9.88;6.93;;;;;;;;;;5055485;28;20021;-64
2021/11/05 07:19:01;;;;;;;12.52;7.25;;;;;;;;;;5055403;28;20108;-62
2021/11/05 07:21:27;;;;;;;15.65;8.57;;;;;;;;;;5054084;28;20028;-63
2021/11/05 07:24:01;;;;;;;9.30;5.43;;;;;;;;;;5055582;28;20021;-63
2021/11/05 07:26:33;;;;;;;6.53;5.15;;;;;;;;;;5055098;28;20473;-62
2021/11/05 07:29:00;;;;;;;10.23;6.15;;;;;;;;;;5055098;28;20043;-63
2021/11/05 07:31:29;;;;;;;7.60;5.35;;;;;;;;;;5055077;28;20025;-63
2021/11/05 07:33:55;;;;;;;8.65;6.07;;;;;;;;;;5054742;28;20029;-63
2021/11/05 07:36:21;;;;;;;10.48;5.57;;;;;;;;;;5055169;28;20029;-63
2021/11/05 07:38:47;;;;;;;9.38;5.32;;;;;;;;;;5054996;28;20507;-62
2021/11/05 07:41:13;;;;;;;10.48;7.50;;;;;;;;;;5055459;28;20458;-63
2021/11/05 07:43:39;;;;;;;11.02;7.53;;;;;;;;;;5055417;28;20496;-63
2021/11/05 07:46:06;;;;;;;10.63;6.72;;;;;;;;;;5054958;28;20032;-65
2021/11/05 07:48:32;;;;;;;7.75;5.70;;;;;;;;;;5055031;28;20124;-64
2021/11/05 07:50:58;;;;;;;11.82;6.63;;;;;;;;;;5055189;28;20093;-63
2021/11/05 07:53:24;;;;;;;11.05;5.10;;;;;;;;;;5054846;28;20465;-65
2021/11/05 07:55:53;;;;;;;6.30;4.60;;;;;;;;;;5054650;28;20374;-64
2021/11/05 07:58:19;;;;;;;10.52;6.40;;;;;;;;;;5054623;28;20025;-64
2021/11/05 08:00:45;;;;;;;11.30;6.13;;;;;;;;;;5054358;28;20045;-65
2021/11/05 08:03:11;;;;;;;10.32;6.25;;;;;;;;;;5053400;28;20028;-65
2021/11/05 08:05:37;;;;;;;9.57;6.50;;;;;;;;;;5054513;28;20036;-65
2021/11/05 08:08:04;;;;;;;8.63;6.13;;;;;;;;;;5054411;28;20402;-65
2021/11/05 08:10:30;;;;;;;9.98;6.57;;;;;;;;;;5054303;28;20075;-64
2021/11/05 08:12:57;;;;;;;11.85;5.97;;;;;;;;;;5054451;28;20021;-65
2021/11/05 08:15:23;;;;;;;11.07;7.10;;;;;;;;;;5054331;28;20127;-62
2021/11/05 08:17:49;;;;;;;9.13;6.53;;;;;;;;;;5054364;28;20071;-65
2021/11/05 08:20:16;;;;;;;12.60;8.30;;;;;;;;;;5054152;28;20024;-65
2021/11/05 08:22:46;;;;;;;18.45;10.95;;;;;;;;;;5054453;28;20021;-66
2021/11/05 08:25:15;;;;;;;21.73;16.80;;;;;;;;;;5052961;28;20028;-64
2021/11/05 08:27:41;;;;;;;25.10;20.92;;;;;;;;;;5054244;28;20029;-65
2021/11/05 08:30:10;;;;;;;13.57;10.18;;;;;;;;;;5054045;28;20461;-66
2021/11/05 08:32:36;;;;;;;9.70;6.65;;;;;;;;;;5054016;28;20029;-65
2021/11/05 08:35:03;;;;;;;8.35;6.40;;;;;;;;;;5053977;28;20494;-64
2021/11/05 08:37:30;;;;;;;8.23;6.15;;;;;;;;;;5053918;28;20028;-64
2021/11/05 08:39:56;;;;;;;11.07;6.57;;;;;;;;;;5053773;28;20029;-64
2021/11/05 08:42:25;;;;;;;13.90;7.18;;;;;;;;;;5054114;28;20415;-64
2021/11/05 08:44:51;;;;;;;10.45;7.30;;;;;;;;;;5053094;28;20024;-65
2021/11/05 08:47:19;;;;;;;10.90;7.13;;;;;;;;;;5053765;28;20021;-63
2021/11/05 08:49:49;;;;;;;7.88;5.75;;;;;;;;;;5053515;28;20029;-65
2021/11/05 08:52:15;;;;;;;9.07;6.00;;;;;;;;;;5054037;28;20392;-65
2021/11/05 08:54:42;;;;;;;11.45;6.72;;;;;;;;;;5053402;28;20032;-65
2021/11/05 08:57:08;;;;;;;7.57;5.93;;;;;;;;;;5053523;28;20021;-65
2021/11/05 08:59:37;;;;;;;6.70;5.25;;;;;;;;;;5053974;28;20021;-65
2021/11/05 09:02:03;;;;;;;8.73;6.00;;;;;;;;;;5053108;28;20412;-65
2021/11/05 09:04:30;;;;;;;9.88;6.28;;;;;;;;;;5053448;28;20491;-65
2021/11/05 09:06:58;;;;;;;7.10;4.85;;;;;;;;;;5053281;28;20067;-65
2021/11/05 09:09:24;;;;;;;6.00;4.22;;;;;;;;;;5053732;28;20119;-66
2021/11/05 09:11:54;;;;;;;6.45;5.00;;;;;;;;;;5054020;28;20048;-65
2021/11/05 09:14:20;;;;;;;7.75;5.65;;;;;;;;;;5053523;28;20027;-65
2021/11/05 09:16:47;;;;;;;7.32;5.40;;;;;;;;;;5052349;28;20517;-65
2021/11/05 09:19:16;;;;;;;6.55;4.55;;;;;;;;;;5053805;28;20056;-65
2021/11/05 09:21:42;;;;;;;8.30;5.72;;;;;;;;;;5053335;28;20021;-65
2021/11/05 09:24:08;;;;;;;9.10;4.75;;;;;;;;;;5053288;28;20021;-64
2021/11/05 09:26:37;;;;;;;7.47;5.47;;;;;;;;;;5053488;28;20025;-63
2021/11/05 09:29:03;;;;;;;6.38;4.93;;;;;;;;;;5053296;28;20033;-63
2021/11/05 09:31:29;;;;;;;7.45;4.90;;;;;;;;;;5053370;28;20033;-59
2021/11/05 09:33:55;;;;;;;9.93;6.63;;;;;;;;;;5053165;28;20029;-64
2021/11/05 09:36:22;;;;;;;16.38;9.57;;;;;;;;;;5053363;28;20020;-64
2021/11/05 09:38:48;;;;;;;19.27;12.10;;;;;;;;;;5053584;28;20025;-60
2021/11/05 09:41:17;;;;;;;17.50;10.95;;;;;;;;;;5053133;28;20055;-59
2021/11/05 09:43:44;;;;;;;12.07;9.07;;;;;;;;;;5053043;28;20033;-63
2021/11/05 09:46:15;;;;;;;13.13;8.23;;;;;;;;;;5053089;28;20070;-59
2021/11/05 09:48:43;;;;;;;13.23;6.72;;;;;;;;;;5052974;28;20527;-64
2021/11/05 09:51:10;;;;;;;9.98;6.13;;;;;;;;;;5053030;28;20047;-63
2021/11/05 09:53:38;;;;;;;10.02;6.72;;;;;;;;;;5053303;28;20393;-64
2021/11/05 09:56:04;;;;;;;10.35;6.45;;;;;;;;;;5054682;28;20032;-63
2021/11/05 09:58:31;;;;;;;9.30;5.97;;;;;;;;;;5056868;28;20078;-60
2021/11/05 10:00:57;;;;;;;6.93;5.32;;;;;;;;;;5056484;28;20037;-62
2021/11/05 10:03:23;;;;;;;14.68;10.70;;;;;;;;;;5056824;28;20527;-59
2021/11/05 10:05:56;;;;;;;21.98;18.15;;;;;;;;;;5056856;28;20029;-63
2021/11/05 10:08:29;;;;;;;18.77;16.77;;;;;;;;;;5055806;28;20108;-63
2021/11/05 10:10:55;;;;;;;7.82;6.50;;;;;;;;;;5056863;28;20025;-62
2021/11/05 10:13:25;;;;;;;6.70;4.75;;;;;;;;;;5056696;28;20386;-60
2021/11/05 10:15:55;;;;;;;8.27;4.57;;;;;;;;;;5056427;28;20025;-63
2021/11/05 10:18:23;;;;;;;8.45;5.80;;;;;;;;;;5056985;28;20021;-62
2021/11/05 10:21:06;;;;;;;8.68;5.75;;;;;;;;;;5056495;28;20529;-61
2021/11/05 10:23:36;;;;;;;11.38;5.53;;;;;;;;;;5056593;28;20389;-63
2021/11/05 10:26:03;;;;;;;9.35;6.15;;;;;;;;;;5056592;28;20028;-60
2021/11/05 10:28:29;;;;;;;11.88;7.35;;;;;;;;;;5056337;28;20370;-63
2021/11/05 10:30:55;;;;;;;12.30;6.43;;;;;;;;;;5056507;28;20036;-60
2021/11/05 10:33:24;;;;;;;7.38;5.38;;;;;;;;;;5056224;28;20480;-59
2021/11/05 10:35:51;;;;;;;9.07;6.63;;;;;;;;;;5056195;28;20025;-59
2021/11/05 10:38:21;;;;;;;7.35;6.15;;;;;;;;;;5056386;28;20042;-62
2021/11/05 10:40:55;;;;;;;7.85;5.65;;;;;;;;;;5054764;28;20116;-64
2021/11/05 10:43:39;;;;;;;5.25;3.83;;;;;;;;;;5056163;28;20551;-59
2021/11/05 10:46:06;;;;;;;4.20;3.47;;;;;;;;;;5056125;28;20453;-64
2021/11/05 10:48:36;;;;;;;6.85;4.60;;;;;;;;;;5055821;28;20017;-59
2021/11/05 10:51:08;;;;;;;5.72;4.47;;;;;;;;;;5055878;28;20116;-60
2021/11/05 10:53:36;;;;;;;7.57;6.30;;;;;;;;;;5056058;28;20013;-63
2021/11/05 10:56:04;;;;;;;19.48;15.00;;;;;;;;;;5055753;28;20033;-60
2021/11/05 10:58:30;;;;;;;9.45;8.05;;;;;;;;;;5056330;28;20056;-60
2021/11/05 11:01:06;;;;;;;7.72;5.88;;;;;;;;;;5055731;28;20045;-62
2021/11/05 11:03:35;;;;;;;8.07;5.55;;;;;;;;;;5055690;28;20373;-60
2021/11/05 11:06:06;;;;;;;8.20;5.53;;;;;;;;;;5055740;28;20078;-69
2021/11/05 11:08:34;;;;;;;8.77;6.47;;;;;;;;;;5054791;28;20238;-66
2021/11/05 11:11:15;;;;;;;12.38;7.35;;;;;;;;;;5055532;28;20061;-66
2021/11/05 11:13:42;;;;;;;11.50;8.30;;;;;;;;;;5055654;28;20457;-68
2021/11/05 11:16:16;;;;;;;20.67;14.43;;;;;;;;;;5055466;28;20034;-65
2021/11/05 11:18:53;;;;;;;18.98;13.55;;;;;;;;;;5055583;28;20025;-67
2021/11/05 11:21:19;;;;;;;13.27;7.38;;;;;;;;;;5055513;28;20021;-66
2021/11/05 11:23:46;;;;;;;9.05;6.07;;;;;;;;;;5055347;28;20047;-65
2021/11/05 11:26:12;;;;;;;9.98;6.30;;;;;;;;;;5055448;28;20020;-66
2021/11/05 11:28:41;;;;;;;16.50;10.60;;;;;;;;;;5055435;28;20438;-66
2021/11/05 11:31:07;;;;;;;14.32;9.35;;;;;;;;;;5055345;28;20021;-67
2021/11/05 11:33:36;;;;;;;16.67;11.27;;;;;;;;;;5055233;28;20036;-67
2021/11/05 11:36:03;;;;;;;14.70;9.05;;;;;;;;;;5055945;28;20022;-66
2021/11/05 11:38:29;;;;;;;13.10;7.45;;;;;;;;;;5055147;28;20485;-66
2021/11/05 11:40:55;;;;;;;14.40;9.13;;;;;;;;;;5055004;28;20023;-65
2021/11/05 11:43:22;;;;;;;16.27;9.85;;;;;;;;;;5055112;28;20082;-65
2021/11/05 11:45:50;;;;;;;16.00;10.10;;;;;;;;;;5054911;28;20017;-64
2021/11/05 11:48:37;;;;;;;14.27;9.60;;;;;;;;;;5055006;28;20040;-65
2021/11/05 11:51:24;;;;;;;13.20;7.78;;;;;;;;;;5054674;28;20114;-65
2021/11/05 11:53:50;;;;;;;8.05;5.88;;;;;;;;;;5054827;28;20043;-63
2021/11/05 11:56:27;;;;;;;10.93;8.60;;;;;;;;;;5054584;28;20017;-65
2021/11/05 11:58:58;;;;;;;12.38;9.45;;;;;;;;;;5054813;28;20457;-58
2021/11/05 12:01:26;;;;;;;12.68;8.90;;;;;;;;;;5054312;28;20557;-59
2021/11/05 12:03:53;;;;;;;9.43;7.13;;;;;;;;;;5055070;28;20033;-60
2021/11/05 12:06:20;;;;;;;9.18;6.72;;;;;;;;;;5054577;28;20025;-65
2021/11/05 12:08:46;;;;;;;14.50;7.82;;;;;;;;;;5054505;28;20029;-59
2021/11/05 12:11:17;;;;;;;22.90;13.40;;;;;;;;;;5054578;28;20366;-65
2021/11/05 12:13:45;;;;;;;64.95;30.25;;;;;;;;;;5054389;28;20017;-65
2021/11/05 12:16:35;;;;;;;90.45;40.50;;;;;;;;;;5054443;28;20401;-63
2021/11/05 12:19:03;;;;;;;89.10;39.28;;;;;;;;;;5053466;28;20028;-63
2021/11/05 12:21:29;;;;;;;67.97;29.10;;;;;;;;;;5054020;28;20154;-62
2021/11/05 12:24:17;;;;;;;67.75;31.05;;;;;;;;;;5030093;28;20030;-58
2021/11/05 12:26:51;;;;;;;51.50;23.77;;;;;;;;;;5023613;28;20021;-60
2021/11/05 12:29:32;;;;;;;65.38;31.50;;;;;;;;;;5022884;28;20025;-58
2021/11/05 12:32:07;;;;;;;38.58;22.10;;;;;;;;;;5022737;28;20106;-61
2021/11/05 12:34:36;;;;;;;34.05;20.23;;;;;;;;;;5023826;28;20048;-59
2021/11/05 12:37:03;;;;;;;24.40;15.27;;;;;;;;;;5024058;28;20097;-60
2021/11/05 12:39:31;;;;;;;18.63;11.93;;;;;;;;;;5022787;28;20060;-63
2021/11/05 12:42:02;;;;;;;17.48;9.85;;;;;;;;;;5022730;28;20025;-64
2021/11/05 12:44:29;;;;;;;11.93;7.73;;;;;;;;;;5023184;28;20021;-61
2021/11/05 12:46:56;;;;;;;14.82;8.20;;;;;;;;;;5023014;28;20543;-60
2021/11/05 12:49:23;;;;;;;16.75;10.65;;;;;;;;;;5022570;28;20370;-59
2021/11/05 12:51:50;;;;;;;15.07;8.55;;;;;;;;;;5023056;28;20025;-59
2021/11/05 12:54:16;;;;;;;17.58;10.93;;;;;;;;;;5023773;28;20134;-59
2021/11/05 12:56:46;;;;;;;28.05;15.43;;;;;;;;;;5022672;28;20580;-60
2021/11/05 12:59:15;;;;;;;23.30;13.77;;;;;;;;;;5023931;28;20302;-60
2021/11/05 13:01:41;;;;;;;21.52;12.30;;;;;;;;;;5023747;28;20402;-61
2021/11/05 13:04:08;;;;;;;12.25;8.55;;;;;;;;;;5023751;28;20030;-60
2021/11/05 13:06:42;;;;;;;13.07;8.80;;;;;;;;;;5022539;28;20409;-61
2021/11/05 13:09:19;;;;;;;11.77;7.50;;;;;;;;;;5022470;28;20048;-61
2021/11/05 13:11:52;;;;;;;11.93;7.18;;;;;;;;;;5025240;28;20410;-63
2021/11/05 13:14:18;;;;;;;9.65;6.90;;;;;;;;;;5023426;28;20062;-61
2021/11/05 13:16:44;;;;;;;8.32;6.32;;;;;;;;;;5022735;28;20026;-59
2021/11/05 13:19:11;;;;;;;10.07;6.22;;;;;;;;;;5022418;28;20398;-60
2021/11/05 13:21:37;;;;;;;11.27;6.68;;;;;;;;;;5022859;28;20525;-61
2021/11/05 13:24:03;;;;;;;8.50;6.60;;;;;;;;;;5025216;28;20032;-60
2021/11/05 13:26:34;;;;;;;8.88;6.55;;;;;;;;;;5022702;28;20037;-59
2021/11/05 13:29:00;;;;;;;16.77;6.90;;;;;;;;;;5022523;28;20030;-61
2021/11/05 13:31:27;;;;;;;15.95;8.90;;;;;;;;;;5024792;28;20565;-59
2021/11/05 13:33:53;;;;;;;23.65;14.88;;;;;;;;;;5026630;28;20509;-59
2021/11/05 13:36:20;;;;;;;31.35;20.20;;;;;;;;;;5026670;28;20447;-59
2021/11/05 13:38:47;;;;;;;24.25;14.23;;;;;;;;;;5026434;28;20030;-61
2021/11/05 13:41:15;;;;;;;22.63;14.95;;;;;;;;;;5027139;28;20029;-65
2021/11/05 13:43:43;;;;;;;24.88;13.80;;;;;;;;;;5029697;28;20017;-65
2021/11/05 13:46:16;;;;;;;22.35;13.45;;;;;;;;;;5029060;28;20021;-69
2021/11/05 13:48:47;;;;;;;17.67;10.63;;;;;;;;;;5029342;28;20025;-61
2021/11/05 13:51:19;;;;;;;15.55;8.77;;;;;;;;;;5026502;28;20037;-64
2021/11/05 13:53:48;;;;;;;23.13;15.68;;;;;;;;;;5026494;28;20029;-51
2021/11/05 13:56:19;;;;;;;14.45;11.18;;;;;;;;;;5027374;28;20859;-52
2021/11/05 13:58:45;;;;;;;16.50;11.50;;;;;;;;;;5025775;28;20029;-52
2021/11/05 14:01:21;;;;;;;14.25;10.25;;;;;;;;;;5025604;28;20037;-56
2021/11/05 14:03:55;;;;;;;31.50;20.70;;;;;;;;;;5026909;28;20025;-54
2021/11/05 14:06:21;;;;;;;24.63;15.30;;;;;;;;;;5026939;28;20021;-59
2021/11/05 14:08:55;;;;;;;17.27;11.80;;;;;;;;;;5026808;28;20060;-55
2021/11/05 14:11:34;;;;;;;13.10;9.52;;;;;;;;;;5025804;28;20031;-55
2021/11/05 14:14:01;;;;;;;15.88;9.48;;;;;;;;;;5025882;28;20083;-55
2021/11/05 14:16:29;;;;;;;13.15;8.40;;;;;;;;;;5025775;28;20017;-58
2021/11/05 14:19:15;;;;;;;14.25;10.77;;;;;;;;;;5026187;28;20033;-56
2021/11/05 14:21:42;;;;;;;10.23;7.70;;;;;;;;;;5027319;28;20025;-58
2021/11/05 14:24:16;;;;;;;20.58;12.75;;;;;;;;;;5026649;28;20025;-59
2021/11/05 14:26:43;;;;;;;10.48;8.65;;;;;;;;;;5025857;28;20116;-58
2021/11/05 14:29:11;;;;;;;8.98;6.78;;;;;;;;;;5025534;28;20621;-56
2021/11/05 14:31:57;;;;;;;9.25;7.20;;;;;;;;;;5024060;28;20048;-55
2021/11/05 14:34:28;;;;;;;12.15;8.55;;;;;;;;;;5024674;28;20029;-57